createdAt,value
2019-03-13T00:01:05.904Z,56.38
2019-03-13T00:03:38.218Z,56.19
2019-03-13T00:06:10.610Z,55.66
2019-03-13T00:08:53.274Z,55.66
2019-03-13T00:11:25.859Z,56.65
2019-03-13T00:13:57.556Z,56.25
2019-03-13T00:16:29.695Z,56.25
2019-03-13T00:19:01.878Z,56.27
2019-03-13T00:21:33.878Z,56.06
2019-03-13T00:24:05.848Z,56.03
2019-03-13T00:26:37.704Z,56.06
2019-03-13T00:29:18.468Z,56.06
2019-03-13T00:31:50.915Z,56.35
2019-03-13T00:34:22.874Z,56.70
2019-03-13T00:36:55.077Z,56.45
2019-03-13T00:39:27.999Z,56.27
2019-03-13T00:42:00.276Z,56.27
2019-03-13T00:44:32.190Z,56.24
2019-03-13T00:47:04.422Z,56.47
2019-03-13T00:49:36.475Z,56.68
2019-03-13T00:52:08.808Z,56.66
2019-03-13T00:54:40.476Z,56.62
2019-03-13T00:57:13.403Z,56.18
2019-03-13T00:59:45.139Z,56.18
2019-03-13T01:02:29.550Z,57.00
2019-03-13T01:05:08.974Z,56.85
2019-03-13T01:07:41.494Z,57.52
2019-03-13T01:10:13.973Z,57.36
2019-03-13T01:12:46.287Z,57.36
2019-03-13T01:15:18.187Z,56.61
2019-03-13T01:17:50.137Z,57.08
2019-03-13T01:20:22.274Z,57.08
2019-03-13T01:22:54.320Z,56.84
2019-03-13T01:25:26.170Z,56.92
2019-03-13T01:27:58.066Z,56.97
2019-03-13T01:30:33.723Z,56.69
2019-03-13T01:33:09.684Z,56.60
2019-03-13T01:35:49.182Z,56.60
2019-03-13T01:38:21.150Z,53.29
2019-03-13T01:40:53.177Z,53.29
2019-03-13T01:43:24.732Z,52.59
2019-03-13T01:45:56.833Z,52.09
2019-03-13T01:48:28.779Z,52.27
2019-03-13T01:51:01.001Z,52.27
2019-03-13T01:53:32.875Z,53.04
2019-03-13T01:56:04.890Z,52.19
2019-03-13T01:58:36.797Z,52.19
2019-03-13T02:01:08.840Z,51.82
2019-03-13T02:03:40.877Z,51.82
2019-03-13T02:06:12.860Z,52.26
2019-03-13T02:08:45.967Z,52.17
2019-03-13T02:11:18.907Z,52.17
2019-03-13T02:13:50.732Z,52.04
2019-03-13T02:16:22.521Z,52.04
2019-03-13T02:18:54.142Z,51.40
2019-03-13T02:21:26.146Z,51.40
2019-03-13T02:23:57.932Z,50.54
2019-03-13T02:26:29.680Z,50.54
2019-03-13T02:29:01.366Z,50.92
2019-03-13T02:31:33.494Z,50.84
2019-03-13T02:34:05.177Z,50.84
2019-03-13T02:36:37.148Z,50.25
2019-03-13T02:39:08.940Z,50.66
2019-03-13T02:41:40.617Z,49.31
2019-03-13T02:44:12.350Z,49.31
2019-03-13T02:46:44.188Z,49.88
2019-03-13T02:49:15.939Z,49.88
2019-03-13T02:51:47.508Z,49.96
2019-03-13T02:54:19.098Z,49.96
2019-03-13T02:56:50.963Z,51.31
2019-03-13T02:59:22.697Z,51.39
2019-03-13T03:02:13.548Z,51.39
2019-03-13T03:04:45.892Z,51.56
2019-03-13T03:07:17.628Z,50.96
2019-03-13T03:09:49.366Z,51.37
2019-03-13T03:12:21.220Z,52.48
2019-03-13T03:15:03.846Z,52.33
2019-03-13T03:17:35.716Z,52.33
2019-03-13T03:20:10.105Z,52.01
2019-03-13T03:22:41.893Z,52.06
2019-03-13T03:25:14.608Z,52.13
2019-03-13T03:27:46.438Z,52.13
2019-03-13T03:30:20.940Z,51.28
2019-03-13T03:32:52.982Z,51.28
2019-03-13T03:35:24.749Z,51.33
2019-03-13T03:37:56.333Z,51.08
2019-03-13T03:40:28.282Z,51.08
2019-03-13T03:42:59.981Z,50.85
2019-03-13T03:45:32.839Z,50.50
2019-03-13T03:48:06.814Z,50.28
2019-03-13T03:50:38.655Z,50.28
2019-03-13T03:53:10.396Z,50.37
2019-03-13T03:55:42.357Z,48.56
2019-03-13T03:58:14.379Z,48.56
2019-03-13T04:00:45.976Z,49.77
2019-03-13T04:03:17.908Z,48.50
2019-03-13T04:05:49.842Z,48.50
2019-03-13T04:08:22.629Z,47.65
2019-03-13T04:10:54.307Z,48.64
2019-03-13T04:13:26.299Z,46.32
2019-03-13T04:15:58.134Z,46.73
2019-03-13T04:18:29.996Z,46.73
2019-03-13T04:21:01.908Z,47.39
2019-03-13T04:23:33.904Z,47.01
2019-03-13T04:26:06.008Z,47.01
2019-03-13T04:28:39.925Z,47.27
2019-03-13T04:31:11.790Z,47.08
2019-03-13T04:33:44.184Z,46.88
2019-03-13T04:36:16.159Z,47.53
2019-03-13T04:38:48.289Z,47.87
2019-03-13T04:41:20.109Z,46.60
2019-03-13T04:43:52.343Z,46.60
2019-03-13T04:46:24.525Z,46.11
2019-03-13T04:48:56.202Z,45.91
2019-03-13T04:51:28.098Z,45.91
2019-03-13T04:53:59.872Z,46.12
2019-03-13T04:56:34.467Z,46.16
2019-03-13T04:59:06.112Z,46.59
2019-03-13T05:01:38.302Z,45.96
2019-03-13T05:04:10.269Z,45.96
2019-03-13T05:06:42.310Z,45.08
2019-03-13T05:09:20.232Z,47.53
2019-03-13T05:11:52.011Z,47.53
2019-03-13T05:14:24.193Z,46.68
2019-03-13T05:16:56.254Z,46.91
2019-03-13T05:19:28.255Z,45.33
2019-03-13T05:22:00.187Z,45.50
2019-03-13T05:24:32.268Z,46.29
2019-03-13T05:27:07.106Z,42.91
2019-03-13T05:30:22.456Z,42.91
2019-03-13T05:32:54.201Z,39.46
2019-03-13T05:35:26.391Z,38.81
2019-03-13T05:37:58.477Z,38.81
2019-03-13T05:41:43.527Z,39.36
2019-03-13T05:44:15.489Z,39.36
2019-03-13T05:46:47.586Z,39.88
2019-03-13T05:49:19.217Z,39.93
2019-03-13T05:51:53.876Z,39.93
2019-03-13T05:54:26.585Z,39.93
2019-03-13T05:56:58.513Z,39.75
2019-03-13T06:01:08.294Z,39.75
2019-03-13T06:03:40.465Z,39.75
2019-03-13T06:06:12.279Z,37.71
2019-03-13T06:08:44.826Z,37.95
2019-03-13T06:12:32.066Z,37.95
2019-03-13T06:15:05.925Z,39.83
2019-03-13T06:19:41.552Z,39.83
2019-03-13T06:22:13.945Z,39.83
2019-03-13T06:24:48.144Z,39.53
2019-03-13T06:27:20.651Z,39.53
2019-03-13T06:29:52.653Z,39.72
2019-03-13T06:32:24.702Z,39.72
2019-03-13T06:34:56.295Z,39.07
2019-03-13T06:38:05.409Z,40.65
2019-03-13T06:40:37.216Z,40.65
2019-03-13T06:43:10.249Z,36.51
2019-03-13T06:45:41.989Z,37.03
2019-03-13T06:48:14.133Z,37.03
2019-03-13T06:50:46.885Z,37.22
2019-03-13T06:53:20.425Z,36.87
2019-03-13T06:55:52.097Z,36.87
2019-03-13T06:58:45.716Z,100.00
2019-03-13T07:03:19.072Z,37.11
2019-03-13T07:06:11.052Z,37.38
2019-03-13T07:10:37.519Z,37.38
2019-03-13T07:13:20.895Z,37.38
2019-03-13T07:16:20.199Z,37.58
2019-03-13T07:19:32.357Z,35.66
2019-03-13T07:22:26.091Z,35.66
2019-03-13T07:25:20.127Z,35.94
2019-03-13T07:28:15.137Z,36.02
2019-03-13T07:31:15.306Z,34.77
2019-03-13T07:34:06.827Z,34.91
2019-03-13T07:39:53.919Z,35.21
2019-03-13T07:42:36.188Z,35.21
2019-03-13T07:47:54.514Z,36.33
2019-03-13T07:50:51.466Z,35.94
2019-03-13T07:57:00.564Z,35.94
2019-03-13T08:03:33.736Z,35.94
2019-03-13T08:07:03.766Z,35.94
2019-03-13T08:11:07.167Z,35.94
2019-03-13T08:14:13.100Z,35.94
2019-03-13T08:17:45.727Z,36.28
2019-03-13T08:20:37.249Z,36.28
2019-03-13T08:23:57.643Z,38.10
2019-03-13T08:26:46.390Z,38.10
2019-03-13T08:29:46.408Z,40.12
2019-03-13T08:32:36.091Z,40.90
2019-03-13T08:35:26.183Z,41.55
2019-03-13T08:38:03.044Z,41.72
2019-03-13T08:40:47.229Z,43.46
2019-03-13T08:43:26.410Z,42.98
2019-03-13T08:46:05.776Z,44.72
2019-03-13T08:48:48.039Z,44.63
2019-03-13T08:51:31.455Z,42.69
2019-03-13T08:54:16.796Z,42.52
2019-03-13T08:57:16.954Z,42.15
2019-03-13T09:00:07.112Z,42.73
2019-03-13T09:03:03.109Z,43.20
2019-03-13T09:05:50.456Z,42.31
2019-03-13T09:08:49.160Z,42.31
2019-03-13T09:11:43.700Z,44.04
2019-03-13T09:18:12.162Z,40.73
2019-03-13T09:21:08.342Z,40.73
2019-03-13T09:29:09.947Z,40.73
2019-03-13T09:33:01.734Z,40.73
2019-03-13T09:36:16.682Z,100.00
2019-03-13T09:40:36.815Z,40.73
2019-03-13T09:45:48.397Z,40.73
2019-03-13T09:49:55.721Z,40.73
2019-03-13T09:52:46.344Z,40.73
2019-03-13T09:58:16.932Z,46.45
2019-03-13T10:03:32.520Z,46.45
2019-03-13T10:08:13.002Z,46.45
2019-03-13T10:10:56.654Z,46.45
2019-03-13T10:17:12.915Z,48.81
2019-03-13T10:23:43.474Z,48.81
2019-03-13T10:26:35.025Z,48.81
2019-03-13T10:33:20.080Z,50.01
2019-03-13T10:40:10.802Z,50.01
2019-03-13T10:45:41.247Z,50.01
2019-03-13T10:53:14.205Z,50.01
2019-03-13T10:56:10.152Z,50.01
2019-03-13T11:04:44.795Z,51.70
2019-03-13T11:07:31.885Z,50.49
2019-03-13T11:16:09.936Z,50.49
2019-03-13T11:23:57.238Z,50.49
2019-03-13T11:26:56.643Z,50.49
2019-03-13T11:31:28.060Z,50.65
2019-03-13T11:34:34.336Z,50.65
2019-03-13T11:37:39.866Z,52.27
2019-03-13T11:40:24.401Z,52.27
2019-03-13T11:43:19.129Z,50.73
2019-03-13T11:46:12.489Z,51.41
2019-03-13T11:49:09.227Z,50.69
2019-03-13T11:52:03.901Z,51.10
2019-03-13T11:54:53.381Z,50.52
2019-03-13T11:57:53.398Z,52.97
2019-03-13T12:00:40.447Z,52.69
2019-03-13T12:03:24.271Z,52.69
2019-03-13T12:06:20.604Z,53.65
2019-03-13T12:09:23.780Z,53.13
2019-03-13T12:12:14.472Z,53.13
2019-03-13T12:15:03.356Z,52.75
2019-03-13T12:17:48.031Z,52.74
2019-03-13T12:20:29.595Z,53.42
2019-03-13T12:23:08.920Z,53.24
2019-03-13T12:25:49.985Z,52.43
2019-03-13T12:28:39.078Z,52.29
2019-03-13T12:31:28.336Z,51.39
2019-03-13T12:34:17.275Z,52.11
2019-03-13T12:37:07.605Z,52.11
2019-03-13T12:39:54.080Z,52.87
2019-03-13T12:42:42.573Z,53.63
2019-03-13T12:45:43.913Z,53.26
2019-03-13T12:48:43.617Z,54.06
2019-03-13T12:51:31.544Z,54.06
2019-03-13T12:54:28.192Z,54.35
2019-03-13T12:57:17.451Z,53.84
2019-03-13T13:00:11.035Z,53.84
2019-03-13T13:02:55.462Z,53.89
2019-03-13T13:05:46.280Z,54.78
2019-03-13T13:08:55.095Z,54.02
2019-03-13T13:11:51.339Z,54.02
2019-03-13T13:14:41.823Z,53.96
2019-03-13T13:17:26.062Z,53.86
2019-03-13T13:19:57.433Z,53.82
2019-03-13T13:22:28.933Z,53.93
2019-03-13T13:25:00.396Z,53.91
2019-03-13T13:27:31.896Z,53.93
2019-03-13T13:30:03.653Z,53.38
2019-03-13T13:32:35.476Z,53.41
2019-03-13T13:35:07.862Z,53.41
2019-03-13T13:37:39.688Z,53.70
2019-03-13T13:40:11.524Z,53.70
2019-03-13T13:42:43.391Z,53.66
2019-03-13T13:45:55.499Z,53.66
2019-03-13T13:48:27.475Z,53.32
2019-03-13T13:50:58.942Z,53.48
2019-03-13T13:53:30.472Z,53.64
2019-03-13T13:56:03.614Z,53.19
2019-03-13T13:58:35.907Z,53.01
2019-03-13T14:01:07.606Z,53.01
2019-03-13T14:03:40.097Z,53.51
2019-03-13T14:06:11.828Z,53.51
2019-03-13T14:08:43.582Z,53.17
2019-03-13T14:11:15.176Z,53.08
2019-03-13T14:13:46.591Z,52.91
2019-03-13T14:16:18.256Z,53.17
2019-03-13T14:18:50.676Z,53.88
2019-03-13T14:21:23.031Z,54.00
2019-03-13T14:23:54.631Z,54.46
2019-03-13T14:26:26.118Z,55.02
2019-03-13T14:28:57.537Z,53.99
2019-03-13T14:31:28.976Z,54.12
2019-03-13T14:34:00.336Z,54.12
2019-03-13T14:36:31.886Z,54.88
2019-03-13T14:39:04.268Z,54.88
2019-03-13T14:41:37.581Z,54.79
2019-03-13T14:44:09.562Z,55.00
2019-03-13T14:46:41.086Z,55.38
2019-03-13T14:49:12.817Z,55.38
2019-03-13T14:51:45.768Z,55.50
2019-03-13T14:54:17.450Z,53.21
2019-03-13T14:56:49.147Z,53.48
2019-03-13T14:59:20.859Z,53.48
2019-03-13T15:01:53.528Z,55.20
2019-03-13T15:04:25.347Z,55.62
2019-03-13T15:06:57.189Z,55.39
2019-03-13T15:09:29.240Z,55.17
2019-03-13T15:12:00.733Z,55.38
2019-03-13T15:14:32.524Z,55.67
2019-03-13T15:17:04.052Z,55.65
2019-03-13T15:19:35.945Z,56.07
2019-03-13T15:22:07.449Z,55.71
2019-03-13T15:24:39.236Z,56.08
2019-03-13T15:27:10.800Z,55.65
2019-03-13T15:29:43.091Z,55.65
2019-03-13T15:32:14.532Z,55.86
2019-03-13T15:34:46.375Z,55.56
2019-03-13T15:37:17.992Z,56.31
2019-03-13T15:39:50.154Z,56.31
2019-03-13T15:42:21.900Z,56.88
2019-03-13T15:44:53.447Z,56.77
2019-03-13T15:47:25.042Z,56.92
2019-03-13T15:49:56.816Z,56.92
2019-03-13T15:52:29.262Z,56.93
2019-03-13T15:55:00.798Z,57.33
2019-03-13T15:57:33.682Z,56.81
2019-03-13T16:00:05.746Z,56.54
2019-03-13T16:02:37.540Z,56.18
2019-03-13T16:05:09.362Z,55.83
2019-03-13T16:07:41.080Z,56.23
2019-03-13T16:10:13.771Z,57.38
2019-03-13T16:12:45.422Z,57.38
2019-03-13T16:15:19.320Z,57.73
2019-03-13T16:17:51.921Z,57.51
2019-03-13T16:20:23.743Z,57.63
2019-03-13T16:22:58.175Z,57.75
2019-03-13T16:25:30.004Z,58.24
2019-03-13T16:28:02.979Z,58.43
2019-03-13T16:30:38.143Z,58.43
2019-03-13T16:33:09.732Z,58.14
2019-03-13T16:35:41.581Z,58.31
2019-03-13T16:38:13.133Z,58.66
2019-03-13T16:40:44.996Z,58.60
2019-03-13T16:45:47.731Z,58.78
2019-03-13T16:48:21.005Z,58.72
2019-03-13T16:50:52.711Z,58.72
2019-03-13T16:53:24.746Z,60.09
2019-03-13T16:55:56.729Z,60.09
2019-03-13T16:58:31.262Z,61.01
2019-03-13T17:01:05.674Z,60.69
2019-03-13T17:03:39.254Z,60.91
2019-03-13T17:06:11.218Z,61.31
2019-03-13T17:08:43.036Z,61.37
2019-03-13T17:11:14.991Z,61.29
2019-03-13T17:13:46.566Z,61.79
2019-03-13T17:16:18.603Z,61.59
2019-03-13T17:18:50.792Z,61.54
2019-03-13T17:21:22.885Z,61.20
2019-03-13T17:23:54.891Z,61.04
2019-03-13T17:26:26.545Z,61.04
2019-03-13T17:28:57.970Z,60.94
2019-03-13T17:31:29.612Z,60.94
2019-03-13T17:34:01.465Z,60.42
2019-03-13T17:36:33.218Z,60.42
2019-03-13T17:39:06.155Z,60.60
2019-03-13T17:41:39.507Z,60.83
2019-03-13T17:44:11.195Z,60.83
2019-03-13T17:46:43.017Z,60.98
2019-03-13T17:49:14.970Z,60.98
2019-03-13T17:51:48.386Z,60.94
2019-03-13T17:54:19.729Z,61.42
2019-03-13T17:56:51.153Z,61.08
2019-03-13T17:59:22.654Z,60.95
2019-03-13T18:01:54.489Z,61.41
2019-03-13T18:04:26.177Z,61.26
2019-03-13T18:06:57.973Z,61.26
2019-03-13T18:09:29.604Z,60.51
2019-03-13T18:12:01.364Z,60.51
2019-03-13T18:14:32.940Z,61.34
2019-03-13T18:17:04.655Z,61.51
2019-03-13T18:19:36.906Z,61.46
2019-03-13T18:22:08.648Z,61.29
2019-03-13T18:24:40.256Z,61.29
2019-03-13T18:27:12.071Z,61.34
2019-03-13T18:29:45.534Z,61.51
2019-03-13T18:32:17.213Z,61.33
2019-03-13T18:34:49.078Z,61.01
2019-03-13T18:37:20.961Z,61.01
2019-03-13T18:39:52.730Z,61.35
2019-03-13T18:42:24.411Z,61.51
2019-03-13T18:44:56.386Z,61.48
2019-03-13T18:47:28.019Z,61.48
2019-03-13T18:50:00.687Z,62.06
2019-03-13T18:52:33.670Z,62.82
2019-03-13T18:55:06.974Z,62.77
2019-03-13T18:57:38.466Z,63.31
2019-03-13T19:00:14.069Z,63.31
2019-03-13T19:02:46.161Z,62.88
2019-03-13T19:05:18.626Z,62.82
2019-03-13T19:07:50.628Z,63.19
2019-03-13T19:10:22.748Z,63.19
2019-03-13T19:12:54.756Z,63.07
2019-03-13T19:15:26.625Z,63.07
2019-03-13T19:18:00.814Z,63.15
2019-03-13T19:20:34.106Z,63.11
2019-03-13T19:23:05.912Z,63.29
2019-03-13T19:25:37.301Z,63.29
2019-03-13T19:28:09.029Z,63.13
2019-03-13T19:30:40.679Z,62.83
2019-03-13T19:33:12.438Z,62.50
2019-03-13T19:35:44.444Z,62.59
2019-03-13T19:38:15.979Z,62.23
2019-03-13T19:40:47.957Z,63.06
2019-03-13T19:43:19.591Z,62.93
2019-03-13T19:45:51.432Z,63.07
2019-03-13T19:48:23.012Z,63.07
2019-03-13T19:50:56.622Z,63.30
2019-03-13T19:53:28.624Z,63.21
2019-03-13T19:56:00.383Z,64.11
2019-03-13T19:58:33.320Z,63.74
2019-03-13T20:01:06.087Z,64.29
2019-03-13T20:03:37.646Z,64.29
2019-03-13T20:06:09.751Z,64.14
2019-03-13T20:08:41.284Z,64.12
2019-03-13T20:11:12.997Z,63.88
2019-03-13T20:13:44.487Z,63.88
2019-03-13T20:16:16.410Z,63.99
2019-03-13T20:18:49.861Z,63.96
2019-03-13T20:21:22.770Z,64.16
2019-03-13T20:23:54.372Z,64.34
2019-03-13T20:26:26.343Z,64.34
2019-03-13T20:28:57.806Z,64.52
2019-03-13T20:31:30.831Z,63.78
2019-03-13T20:34:02.582Z,64.07
2019-03-13T20:36:34.224Z,64.57
2019-03-13T20:39:06.367Z,64.93
2019-03-13T20:41:40.254Z,64.93
2019-03-13T20:44:11.970Z,64.72
2019-03-13T20:46:43.759Z,64.31
2019-03-13T20:49:15.465Z,63.75
2019-03-13T20:51:47.222Z,63.75
2019-03-13T20:54:18.895Z,64.72
2019-03-13T20:56:50.586Z,64.65
2019-03-13T20:59:21.947Z,64.39
2019-03-13T21:01:53.332Z,64.39
2019-03-13T21:04:24.901Z,65.03
2019-03-13T21:06:56.679Z,65.53
2019-03-13T21:09:28.380Z,65.58
2019-03-13T21:12:00.350Z,65.02
2019-03-13T21:14:32.185Z,65.03
2019-03-13T21:17:04.095Z,65.03
2019-03-13T21:19:36.047Z,65.04
2019-03-13T21:22:07.985Z,65.55
2019-03-13T21:24:39.501Z,65.75
2019-03-13T21:27:11.052Z,65.75
2019-03-13T21:29:42.630Z,65.80
2019-03-13T21:32:14.383Z,65.69
2019-03-13T21:34:46.071Z,65.19
2019-03-13T21:37:17.932Z,65.11
2019-03-13T21:39:49.400Z,65.53
2019-03-13T21:42:21.287Z,65.39
2019-03-13T21:44:53.210Z,65.43
2019-03-13T21:47:24.883Z,65.43
2019-03-13T21:49:56.487Z,65.72
2019-03-13T21:52:28.245Z,65.72
2019-03-13T21:54:59.790Z,65.87
2019-03-13T21:57:31.580Z,65.99
2019-03-13T22:00:03.105Z,65.99
2019-03-13T22:02:36.620Z,65.80
2019-03-13T22:05:08.531Z,65.73
2019-03-13T22:07:40.107Z,66.22
2019-03-13T22:10:12.437Z,66.56
2019-03-13T22:12:44.362Z,66.56
2019-03-13T22:15:16.822Z,66.60
2019-03-13T22:17:48.506Z,66.60
2019-03-13T22:20:20.175Z,66.34
2019-03-13T22:22:51.890Z,66.05
2019-03-13T22:25:23.570Z,65.85
2019-03-13T22:27:55.101Z,65.85
2019-03-13T22:30:28.813Z,66.58
2019-03-13T22:33:00.394Z,66.39
2019-03-13T22:35:31.861Z,65.51
2019-03-13T22:38:03.327Z,65.51
2019-03-13T22:40:35.048Z,66.15
2019-03-13T22:43:06.619Z,66.05
2019-03-13T22:45:38.521Z,66.22
2019-03-13T22:48:10.371Z,67.04
2019-03-13T22:50:41.829Z,66.35
2019-03-13T22:53:13.472Z,66.35
2019-03-13T22:55:45.046Z,66.59
2019-03-13T22:58:17.859Z,67.48
2019-03-13T23:01:00.064Z,67.48
2019-03-13T23:03:33.643Z,67.48
2019-03-13T23:06:05.830Z,67.60
2019-03-13T23:08:37.358Z,67.60
2019-03-13T23:11:09.100Z,68.47
2019-03-13T23:13:40.775Z,68.55
2019-03-13T23:16:12.716Z,68.55
2019-03-13T23:18:44.544Z,68.84
2019-03-13T23:21:16.301Z,68.98
2019-03-13T23:23:48.621Z,68.78
2019-03-13T23:26:20.076Z,68.78
2019-03-13T23:28:51.983Z,68.47
2019-03-13T23:31:23.645Z,68.92
2019-03-13T23:33:55.513Z,69.18
2019-03-13T23:36:27.097Z,69.18
2019-03-13T23:38:58.939Z,68.27
2019-03-13T23:41:31.653Z,68.00
2019-03-13T23:44:03.264Z,67.44
2019-03-13T23:46:35.465Z,67.71
2019-03-13T23:49:07.382Z,67.61
2019-03-13T23:51:39.245Z,68.03
2019-03-13T23:54:10.835Z,68.21
2019-03-13T23:56:42.516Z,68.21
2019-03-13T23:59:14.238Z,68.08
